<?xml version="1.0" encoding="utf-8"?>
<gpx xmlns:xsi="http://www.w3.org/2001/XMLSchema-instance" xmlns:xsd="http://www.w3.org/2001/XMLSchema" version="1.1" creator="Shapelink.com" xmlns="http://www.topografix.com/GPX/1/1" xmlns:gpxtpx="http://www.garmin.com/xmlschemas/TrackPointExtension/v1">
  <metadata>
    <name>Löpning 6.69 km, 2012-02-14</name>
    <desc></desc>
    <author><name>Dennis Rehn</name></author> 
    <time>2012-02-14T18:15:48Z</time>
  </metadata>
  <trk>
    <name>Löpning 6.69 km, 2012-02-14</name>
    <trkseg>
      <trkpt lat="60.0205447476" lon="23.5389043545">
        <ele>43.6</ele>
        <time>2012-02-14T18:15:48Z</time>
      </trkpt>
      <trkpt lat="60.0204145767" lon="23.5390499481">
        <ele>46.8</ele>
        <time>2012-02-14T18:15:53Z</time>
      </trkpt>
      <trkpt lat="60.020270408" lon="23.5391772692">
        <ele>49.4</ele>
        <time>2012-02-14T18:15:58Z</time>
      </trkpt>
      <trkpt lat="60.0200891913" lon="23.5393664487">
        <ele>51.4</ele>
        <time>2012-02-14T18:16:04Z</time>
      </trkpt>
      <trkpt lat="60.0199452741" lon="23.5395531974">
        <ele>52.2</ele>
        <time>2012-02-14T18:16:09Z</time>
      </trkpt>
      <trkpt lat="60.0197911309" lon="23.53972796">
        <ele>52.8</ele>
        <time>2012-02-14T18:16:14Z</time>
      </trkpt>
      <trkpt lat="60.0196458726" lon="23.5399205761">
        <ele>53.2</ele>
        <time>2012-02-14T18:16:19Z</time>
      </trkpt>
      <trkpt lat="60.0195183839" lon="23.5401064028">
        <ele>53.4</ele>
        <time>2012-02-14T18:16:24Z</time>
      </trkpt>
      <trkpt lat="60.0193557751" lon="23.5403501484">
        <ele>53</ele>
        <time>2012-02-14T18:16:29Z</time>
      </trkpt>
      <trkpt lat="60.0191854549" lon="23.5406137592">
        <ele>52.4</ele>
        <time>2012-02-14T18:16:36Z</time>
      </trkpt>
      <trkpt lat="60.0188976204" lon="23.5411816329">
        <ele>51.8</ele>
        <time>2012-02-14T18:16:49Z</time>
      </trkpt>
      <trkpt lat="60.0187932658" lon="23.5414666175">
        <ele>51.8</ele>
        <time>2012-02-14T18:16:54Z</time>
      </trkpt>
      <trkpt lat="60.0186922639" lon="23.54179611">
        <ele>51.8</ele>
        <time>2012-02-14T18:17:00Z</time>
      </trkpt>
      <trkpt lat="60.0185707263" lon="23.542096182">
        <ele>52</ele>
        <time>2012-02-14T18:17:06Z</time>
      </trkpt>
      <trkpt lat="60.0184314191" lon="23.5423714436">
        <ele>52.8</ele>
        <time>2012-02-14T18:17:12Z</time>
      </trkpt>
      <trkpt lat="60.0182640326" lon="23.5425839248">
        <ele>53.4</ele>
        <time>2012-02-14T18:17:18Z</time>
      </trkpt>
      <trkpt lat="60.0180411579" lon="23.5427568434">
        <ele>54.6</ele>
        <time>2012-02-14T18:17:25Z</time>
      </trkpt>
      <trkpt lat="60.0178881882" lon="23.5428119125">
        <ele>55.2</ele>
        <time>2012-02-14T18:17:30Z</time>
      </trkpt>
      <trkpt lat="60.0176858491" lon="23.5428901156">
        <ele>55.4</ele>
        <time>2012-02-14T18:17:36Z</time>
      </trkpt>
      <trkpt lat="60.0174933169" lon="23.5429387306">
        <ele>56.6</ele>
        <time>2012-02-14T18:17:42Z</time>
      </trkpt>
      <trkpt lat="60.0173309595" lon="23.5430169337">
        <ele>57.4</ele>
        <time>2012-02-14T18:17:47Z</time>
      </trkpt>
      <trkpt lat="60.0171777383" lon="23.543041828">
        <ele>58.8</ele>
        <time>2012-02-14T18:17:53Z</time>
      </trkpt>
      <trkpt lat="60.0171660037" lon="23.5430519701">
        <ele>60</ele>
        <time>2012-02-14T18:18:00Z</time>
      </trkpt>
      <trkpt lat="60.0170764012" lon="23.5430970647">
        <ele>61.2</ele>
        <time>2012-02-14T18:18:06Z</time>
      </trkpt>
      <trkpt lat="60.0170517584" lon="23.5431184385">
        <ele>61.4</ele>
        <time>2012-02-14T18:18:08Z</time>
      </trkpt>
      <trkpt lat="60.0170408619" lon="23.543119612">
        <ele>62</ele>
        <time>2012-02-14T18:18:17Z</time>
      </trkpt>
      <trkpt lat="60.0170209968" lon="23.5430959751">
        <ele>62.4</ele>
        <time>2012-02-14T18:18:40Z</time>
      </trkpt>
      <trkpt lat="60.0169200787" lon="23.5430777025">
        <ele>62.4</ele>
        <time>2012-02-14T18:18:45Z</time>
      </trkpt>
      <trkpt lat="60.0167357608" lon="23.5431176842">
        <ele>62.4</ele>
        <time>2012-02-14T18:18:51Z</time>
      </trkpt>
      <trkpt lat="60.0165520295" lon="23.543167305">
        <ele>62.4</ele>
        <time>2012-02-14T18:18:57Z</time>
      </trkpt>
      <trkpt lat="60.0163599164" lon="23.5432262298">
        <ele>62.4</ele>
        <time>2012-02-14T18:19:03Z</time>
      </trkpt>
      <trkpt lat="60.0162368701" lon="23.5432678878">
        <ele>62.4</ele>
        <time>2012-02-14T18:19:07Z</time>
      </trkpt>
      <trkpt lat="60.0160720819" lon="23.543291441">
        <ele>62.4</ele>
        <time>2012-02-14T18:19:13Z</time>
      </trkpt>
      <trkpt lat="60.0160386381" lon="23.5433105517">
        <ele>62.4</ele>
        <time>2012-02-14T18:19:14Z</time>
      </trkpt>
      <trkpt lat="60.0159098083" lon="23.5433770202">
        <ele>62.2</ele>
        <time>2012-02-14T18:19:18Z</time>
      </trkpt>
      <trkpt lat="60.0157531506" lon="23.5434524573">
        <ele>61.4</ele>
        <time>2012-02-14T18:19:23Z</time>
      </trkpt>
      <trkpt lat="60.0155559245" lon="23.5435489329">
        <ele>61</ele>
        <time>2012-02-14T18:19:29Z</time>
      </trkpt>
      <trkpt lat="60.0153988477" lon="23.5436538743">
        <ele>60.8</ele>
        <time>2012-02-14T18:19:34Z</time>
      </trkpt>
      <trkpt lat="60.0152448722" lon="23.543755882">
        <ele>60.6</ele>
        <time>2012-02-14T18:19:39Z</time>
      </trkpt>
      <trkpt lat="60.015056028" lon="23.5438916688">
        <ele>60.4</ele>
        <time>2012-02-14T18:19:45Z</time>
      </trkpt>
      <trkpt lat="60.0149331493" lon="23.5439782539">
        <ele>60.4</ele>
        <time>2012-02-14T18:19:49Z</time>
      </trkpt>
      <trkpt lat="60.0147540281" lon="23.5441121128">
        <ele>60.4</ele>
        <time>2012-02-14T18:19:54Z</time>
      </trkpt>
      <trkpt lat="60.014554036" lon="23.5442039784">
        <ele>60.4</ele>
        <time>2012-02-14T18:20:00Z</time>
      </trkpt>
      <trkpt lat="60.014352619" lon="23.544240775">
        <ele>61.2</ele>
        <time>2012-02-14T18:20:06Z</time>
      </trkpt>
      <trkpt lat="60.0142116354" lon="23.5442441277">
        <ele>61.6</ele>
        <time>2012-02-14T18:20:10Z</time>
      </trkpt>
      <trkpt lat="60.0140782794" lon="23.5442320578">
        <ele>61.8</ele>
        <time>2012-02-14T18:20:14Z</time>
      </trkpt>
      <trkpt lat="60.0139152514" lon="23.5441856221">
        <ele>62.6</ele>
        <time>2012-02-14T18:20:19Z</time>
      </trkpt>
      <trkpt lat="60.0137563306" lon="23.5441497475">
        <ele>63.4</ele>
        <time>2012-02-14T18:20:24Z</time>
      </trkpt>
      <trkpt lat="60.0135738566" lon="23.5440859613">
        <ele>64.2</ele>
        <time>2012-02-14T18:20:30Z</time>
      </trkpt>
      <trkpt lat="60.0132580266" lon="23.5439907429">
        <ele>65.8</ele>
        <time>2012-02-14T18:20:41Z</time>
      </trkpt>
      <trkpt lat="60.0132447832" lon="23.5439806008">
        <ele>65.8</ele>
        <time>2012-02-14T18:20:42Z</time>
      </trkpt>
      <trkpt lat="60.0132352279" lon="23.5439722189">
        <ele>66</ele>
        <time>2012-02-14T18:20:44Z</time>
      </trkpt>
      <trkpt lat="60.0132032928" lon="23.5439549522">
        <ele>66.2</ele>
        <time>2012-02-14T18:20:51Z</time>
      </trkpt>
      <trkpt lat="60.0131686756" lon="23.543931399">
        <ele>66.4</ele>
        <time>2012-02-14T18:20:56Z</time>
      </trkpt>
      <trkpt lat="60.0131201444" lon="23.5439094385">
        <ele>66.4</ele>
        <time>2012-02-14T18:21:03Z</time>
      </trkpt>
      <trkpt lat="60.0130858624" lon="23.5438921717">
        <ele>66.4</ele>
        <time>2012-02-14T18:21:10Z</time>
      </trkpt>
      <trkpt lat="60.0131270175" lon="23.5439545331">
        <ele>66.4</ele>
        <time>2012-02-14T18:22:41Z</time>
      </trkpt>
      <trkpt lat="60.0131374949" lon="23.5439099414">
        <ele>66.4</ele>
        <time>2012-02-14T18:22:48Z</time>
      </trkpt>
      <trkpt lat="60.0131480561" lon="23.543876749">
        <ele>66.4</ele>
        <time>2012-02-14T18:23:22Z</time>
      </trkpt>
      <trkpt lat="60.0132600383" lon="23.5439014756">
        <ele>66.4</ele>
        <time>2012-02-14T18:23:26Z</time>
      </trkpt>
      <trkpt lat="60.0134443563" lon="23.5439206702">
        <ele>66.4</ele>
        <time>2012-02-14T18:23:30Z</time>
      </trkpt>
      <trkpt lat="60.0136393193" lon="23.5439622444">
        <ele>66.4</ele>
        <time>2012-02-14T18:23:34Z</time>
      </trkpt>
      <trkpt lat="60.0137155946" lon="23.5439686985">
        <ele>66.4</ele>
        <time>2012-02-14T18:23:36Z</time>
      </trkpt>
      <trkpt lat="60.0138550694" lon="23.5439971969">
        <ele>66.4</ele>
        <time>2012-02-14T18:23:39Z</time>
      </trkpt>
      <trkpt lat="60.0139003316" lon="23.5440086801">
        <ele>66.4</ele>
        <time>2012-02-14T18:23:40Z</time>
      </trkpt>
      <trkpt lat="60.0140322627" lon="23.5440374301">
        <ele>66.4</ele>
        <time>2012-02-14T18:23:43Z</time>
      </trkpt>
      <trkpt lat="60.0142144852" lon="23.5440556188">
        <ele>66.2</ele>
        <time>2012-02-14T18:23:47Z</time>
      </trkpt>
      <trkpt lat="60.0143444885" lon="23.5440716282">
        <ele>65.6</ele>
        <time>2012-02-14T18:23:50Z</time>
      </trkpt>
      <trkpt lat="60.0145993821" lon="23.5440360051">
        <ele>65.2</ele>
        <time>2012-02-14T18:23:56Z</time>
      </trkpt>
      <trkpt lat="60.0147260326" lon="23.5439855461">
        <ele>65</ele>
        <time>2012-02-14T18:23:59Z</time>
      </trkpt>
      <trkpt lat="60.0149568701" lon="23.5438264576">
        <ele>64.8</ele>
        <time>2012-02-14T18:24:05Z</time>
      </trkpt>
      <trkpt lat="60.0151038048" lon="23.5437138887">
        <ele>64.6</ele>
        <time>2012-02-14T18:24:09Z</time>
      </trkpt>
      <trkpt lat="60.0153317925" lon="23.5435444905">
        <ele>64.6</ele>
        <time>2012-02-14T18:24:15Z</time>
      </trkpt>
      <trkpt lat="60.0153744564" lon="23.5435170817">
        <ele>64.6</ele>
        <time>2012-02-14T18:24:16Z</time>
      </trkpt>
      <trkpt lat="60.0156160227" lon="23.5433289919">
        <ele>64.6</ele>
        <time>2012-02-14T18:24:22Z</time>
      </trkpt>
      <trkpt lat="60.0158163502" lon="23.5432184346">
        <ele>64.4</ele>
        <time>2012-02-14T18:24:27Z</time>
      </trkpt>
      <trkpt lat="60.0158577567" lon="23.5432058618">
        <ele>64.4</ele>
        <time>2012-02-14T18:24:28Z</time>
      </trkpt>
      <trkpt lat="60.0159781208" lon="23.5431532234">
        <ele>64.4</ele>
        <time>2012-02-14T18:24:31Z</time>
      </trkpt>
      <trkpt lat="60.0162189328" lon="23.5430916165">
        <ele>64.4</ele>
        <time>2012-02-14T18:24:37Z</time>
      </trkpt>
      <trkpt lat="60.0164083637" lon="23.5430296742">
        <ele>64.4</ele>
        <time>2012-02-14T18:24:42Z</time>
      </trkpt>
      <trkpt lat="60.0166019856" lon="23.5429768683">
        <ele>64.4</ele>
        <time>2012-02-14T18:24:47Z</time>
      </trkpt>
      <trkpt lat="60.0167945179" lon="23.5429193684">
        <ele>64.4</ele>
        <time>2012-02-14T18:24:52Z</time>
      </trkpt>
      <trkpt lat="60.0169950129" lon="23.5428647184">
        <ele>64.4</ele>
        <time>2012-02-14T18:24:57Z</time>
      </trkpt>
      <trkpt lat="60.0171914847" lon="23.5428171931">
        <ele>64.2</ele>
        <time>2012-02-14T18:25:02Z</time>
      </trkpt>
      <trkpt lat="60.017389549" lon="23.5427483777">
        <ele>63.6</ele>
        <time>2012-02-14T18:25:07Z</time>
      </trkpt>
      <trkpt lat="60.0175713524" lon="23.5426849267">
        <ele>63</ele>
        <time>2012-02-14T18:25:12Z</time>
      </trkpt>
      <trkpt lat="60.0177597775" lon="23.5426170333">
        <ele>62.8</ele>
        <time>2012-02-14T18:25:17Z</time>
      </trkpt>
      <trkpt lat="60.01794661" lon="23.5425736989">
        <ele>62.6</ele>
        <time>2012-02-14T18:25:22Z</time>
      </trkpt>
      <trkpt lat="60.0181277429" lon="23.5424923106">
        <ele>62.6</ele>
        <time>2012-02-14T18:25:27Z</time>
      </trkpt>
      <trkpt lat="60.0183016673" lon="23.5423881236">
        <ele>62.4</ele>
        <time>2012-02-14T18:25:32Z</time>
      </trkpt>
      <trkpt lat="60.018478274" lon="23.5421580404">
        <ele>61.4</ele>
        <time>2012-02-14T18:25:38Z</time>
      </trkpt>
      <trkpt lat="60.0186073552" lon="23.5419018058">
        <ele>61</ele>
        <time>2012-02-14T18:25:43Z</time>
      </trkpt>
      <trkpt lat="60.0187461595" lon="23.5415774262">
        <ele>60.8</ele>
        <time>2012-02-14T18:25:49Z</time>
      </trkpt>
      <trkpt lat="60.0188422999" lon="23.5412828025">
        <ele>60.6</ele>
        <time>2012-02-14T18:25:54Z</time>
      </trkpt>
      <trkpt lat="60.0189841216" lon="23.5409625301">
        <ele>60.6</ele>
        <time>2012-02-14T18:26:00Z</time>
      </trkpt>
      <trkpt lat="60.0190914099" lon="23.5406970753">
        <ele>60.4</ele>
        <time>2012-02-14T18:26:05Z</time>
      </trkpt>
      <trkpt lat="60.0192186472" lon="23.540461041">
        <ele>60.4</ele>
        <time>2012-02-14T18:26:10Z</time>
      </trkpt>
      <trkpt lat="60.0193558589" lon="23.5402685087">
        <ele>60.4</ele>
        <time>2012-02-14T18:26:15Z</time>
      </trkpt>
      <trkpt lat="60.0194931544" lon="23.540073881">
        <ele>60.4</ele>
        <time>2012-02-14T18:26:20Z</time>
      </trkpt>
      <trkpt lat="60.0196285221" lon="23.5398783313">
        <ele>60.4</ele>
        <time>2012-02-14T18:26:25Z</time>
      </trkpt>
      <trkpt lat="60.019773026" lon="23.5396577197">
        <ele>60.4</ele>
        <time>2012-02-14T18:26:30Z</time>
      </trkpt>
      <trkpt lat="60.0199299352" lon="23.5394595716">
        <ele>60.4</ele>
        <time>2012-02-14T18:26:35Z</time>
      </trkpt>
      <trkpt lat="60.0200576754" lon="23.5393029139">
        <ele>60.4</ele>
        <time>2012-02-14T18:26:39Z</time>
      </trkpt>
      <trkpt lat="60.0202782032" lon="23.5390626048">
        <ele>60.4</ele>
        <time>2012-02-14T18:26:46Z</time>
      </trkpt>
      <trkpt lat="60.0204471823" lon="23.5389067853">
        <ele>60.4</ele>
        <time>2012-02-14T18:26:51Z</time>
      </trkpt>
      <trkpt lat="60.0206121381" lon="23.5387504628">
        <ele>60.4</ele>
        <time>2012-02-14T18:26:56Z</time>
      </trkpt>
      <trkpt lat="60.0208030777" lon="23.5385690785">
        <ele>60.4</ele>
        <time>2012-02-14T18:27:02Z</time>
      </trkpt>
      <trkpt lat="60.0209759963" lon="23.538381743">
        <ele>60.4</ele>
        <time>2012-02-14T18:27:07Z</time>
      </trkpt>
      <trkpt lat="60.0210815245" lon="23.5382462077">
        <ele>60.4</ele>
        <time>2012-02-14T18:27:12Z</time>
      </trkpt>
      <trkpt lat="60.0210918342" lon="23.5381934856">
        <ele>60.4</ele>
        <time>2012-02-14T18:27:28Z</time>
      </trkpt>
      <trkpt lat="60.0210768306" lon="23.53812291">
        <ele>60.2</ele>
        <time>2012-02-14T18:28:42Z</time>
      </trkpt>
      <trkpt lat="60.0209697937" lon="23.5383819945">
        <ele>58.4</ele>
        <time>2012-02-14T18:29:47Z</time>
      </trkpt>
      <trkpt lat="60.0208361862" lon="23.5385329525">
        <ele>58.4</ele>
        <time>2012-02-14T18:29:51Z</time>
      </trkpt>
      <trkpt lat="60.0207004833" lon="23.5386551606">
        <ele>58.4</ele>
        <time>2012-02-14T18:29:55Z</time>
      </trkpt>
      <trkpt lat="60.020526978" lon="23.5388082141">
        <ele>57.6</ele>
        <time>2012-02-14T18:30:00Z</time>
      </trkpt>
      <trkpt lat="60.020453301" lon="23.538880047">
        <ele>57.4</ele>
        <time>2012-02-14T18:30:02Z</time>
      </trkpt>
      <trkpt lat="60.0203809653" lon="23.538947186">
        <ele>57.2</ele>
        <time>2012-02-14T18:30:04Z</time>
      </trkpt>
      <trkpt lat="60.0202112318" lon="23.53911298">
        <ele>56.4</ele>
        <time>2012-02-14T18:30:09Z</time>
      </trkpt>
      <trkpt lat="60.02003144" lon="23.5393018242">
        <ele>55.4</ele>
        <time>2012-02-14T18:30:14Z</time>
      </trkpt>
      <trkpt lat="60.0198788056" lon="23.539531153">
        <ele>54.8</ele>
        <time>2012-02-14T18:30:19Z</time>
      </trkpt>
      <trkpt lat="60.019713766" lon="23.5397577157">
        <ele>53.6</ele>
        <time>2012-02-14T18:30:24Z</time>
      </trkpt>
      <trkpt lat="60.0195694297" lon="23.5399626532">
        <ele>53</ele>
        <time>2012-02-14T18:30:28Z</time>
      </trkpt>
      <trkpt lat="60.0192929946" lon="23.5403883699">
        <ele>51.8</ele>
        <time>2012-02-14T18:30:37Z</time>
      </trkpt>
      <trkpt lat="60.0191624046" lon="23.5406278408">
        <ele>51</ele>
        <time>2012-02-14T18:30:42Z</time>
      </trkpt>
      <trkpt lat="60.0190426273" lon="23.5408590974">
        <ele>50.6</ele>
        <time>2012-02-14T18:30:46Z</time>
      </trkpt>
      <trkpt lat="60.018821848" lon="23.5414576489">
        <ele>50.2</ele>
        <time>2012-02-14T18:30:57Z</time>
      </trkpt>
      <trkpt lat="60.0187136377" lon="23.5417575533">
        <ele>50.2</ele>
        <time>2012-02-14T18:31:02Z</time>
      </trkpt>
      <trkpt lat="60.0185901723" lon="23.5420580444">
        <ele>50</ele>
        <time>2012-02-14T18:31:07Z</time>
      </trkpt>
      <trkpt lat="60.0184442434" lon="23.5422986049">
        <ele>50</ele>
        <time>2012-02-14T18:31:12Z</time>
      </trkpt>
      <trkpt lat="60.0182823051" lon="23.5424975912">
        <ele>50</ele>
        <time>2012-02-14T18:31:17Z</time>
      </trkpt>
      <trkpt lat="60.0181366277" lon="23.5426018621">
        <ele>50</ele>
        <time>2012-02-14T18:31:21Z</time>
      </trkpt>
      <trkpt lat="60.0179329475" lon="23.5427114973">
        <ele>50</ele>
        <time>2012-02-14T18:31:27Z</time>
      </trkpt>
      <trkpt lat="60.0177534072" lon="23.5427638842">
        <ele>50</ele>
        <time>2012-02-14T18:31:32Z</time>
      </trkpt>
      <trkpt lat="60.0175622999" lon="23.542822306">
        <ele>50.8</ele>
        <time>2012-02-14T18:31:37Z</time>
      </trkpt>
      <trkpt lat="60.0173766408" lon="23.5428822366">
        <ele>51.2</ele>
        <time>2012-02-14T18:31:42Z</time>
      </trkpt>
      <trkpt lat="60.0171776545" lon="23.5429416643">
        <ele>51.6</ele>
        <time>2012-02-14T18:31:48Z</time>
      </trkpt>
      <trkpt lat="60.0169916602" lon="23.5429819812">
        <ele>51.8</ele>
        <time>2012-02-14T18:31:53Z</time>
      </trkpt>
      <trkpt lat="60.0168104435" lon="23.5430229687">
        <ele>51.8</ele>
        <time>2012-02-14T18:31:58Z</time>
      </trkpt>
      <trkpt lat="60.0166271313" lon="23.5430745174">
        <ele>52</ele>
        <time>2012-02-14T18:32:03Z</time>
      </trkpt>
      <trkpt lat="60.0164476749" lon="23.5431243059">
        <ele>52</ele>
        <time>2012-02-14T18:32:08Z</time>
      </trkpt>
      <trkpt lat="60.0162659553" lon="23.5431605157">
        <ele>52</ele>
        <time>2012-02-14T18:32:13Z</time>
      </trkpt>
      <trkpt lat="60.0161191882" lon="23.5431824763">
        <ele>52</ele>
        <time>2012-02-14T18:32:17Z</time>
      </trkpt>
      <trkpt lat="60.0159735108" lon="23.5432343602">
        <ele>52</ele>
        <time>2012-02-14T18:32:21Z</time>
      </trkpt>
      <trkpt lat="60.0157977423" lon="23.5433339372">
        <ele>52</ele>
        <time>2012-02-14T18:32:26Z</time>
      </trkpt>
      <trkpt lat="60.0156208004" lon="23.5434330951">
        <ele>52</ele>
        <time>2012-02-14T18:32:31Z</time>
      </trkpt>
      <trkpt lat="60.015355178" lon="23.5436444028">
        <ele>52</ele>
        <time>2012-02-14T18:32:39Z</time>
      </trkpt>
      <trkpt lat="60.0152255938" lon="23.543727635">
        <ele>52</ele>
        <time>2012-02-14T18:32:43Z</time>
      </trkpt>
      <trkpt lat="60.0150525914" lon="23.5438370188">
        <ele>52.2</ele>
        <time>2012-02-14T18:32:48Z</time>
      </trkpt>
      <trkpt lat="60.0148603945" lon="23.54401153">
        <ele>53</ele>
        <time>2012-02-14T18:32:53Z</time>
      </trkpt>
      <trkpt lat="60.0146786749" lon="23.5441173096">
        <ele>53.4</ele>
        <time>2012-02-14T18:32:58Z</time>
      </trkpt>
      <trkpt lat="60.0144988831" lon="23.5441557825">
        <ele>54.4</ele>
        <time>2012-02-14T18:33:03Z</time>
      </trkpt>
      <trkpt lat="60.0143172473" lon="23.5441534356">
        <ele>55.2</ele>
        <time>2012-02-14T18:33:08Z</time>
      </trkpt>
      <trkpt lat="60.0141681333" lon="23.544132397">
        <ele>55.4</ele>
        <time>2012-02-14T18:33:12Z</time>
      </trkpt>
      <trkpt lat="60.0139873358" lon="23.5440849554">
        <ele>55.8</ele>
        <time>2012-02-14T18:33:17Z</time>
      </trkpt>
      <trkpt lat="60.0138097233" lon="23.5440244381">
        <ele>56.6</ele>
        <time>2012-02-14T18:33:22Z</time>
      </trkpt>
      <trkpt lat="60.0136302668" lon="23.543922598">
        <ele>57.2</ele>
        <time>2012-02-14T18:33:27Z</time>
      </trkpt>
      <trkpt lat="60.0134553366" lon="23.5438333308">
        <ele>57.6</ele>
        <time>2012-02-14T18:33:32Z</time>
      </trkpt>
      <trkpt lat="60.0133802347" lon="23.5437889906">
        <ele>57.8</ele>
        <time>2012-02-14T18:33:34Z</time>
      </trkpt>
      <trkpt lat="60.0131992695" lon="23.5436928502">
        <ele>58</ele>
        <time>2012-02-14T18:33:39Z</time>
      </trkpt>
      <trkpt lat="60.0131586173" lon="23.5436900003">
        <ele>58</ele>
        <time>2012-02-14T18:33:43Z</time>
      </trkpt>
      <trkpt lat="60.0131435299" lon="23.5436819537">
        <ele>58</ele>
        <time>2012-02-14T18:33:49Z</time>
      </trkpt>
      <trkpt lat="60.0130676737" lon="23.54372906">
        <ele>59.2</ele>
        <time>2012-02-14T18:34:18Z</time>
      </trkpt>
      <trkpt lat="60.013039259" lon="23.5437272159">
        <ele>59.6</ele>
        <time>2012-02-14T18:34:21Z</time>
      </trkpt>
      <trkpt lat="60.0130400972" lon="23.5437205942">
        <ele>59.8</ele>
        <time>2012-02-14T18:34:28Z</time>
      </trkpt>
      <trkpt lat="60.0130442044" lon="23.5437099492">
        <ele>60</ele>
        <time>2012-02-14T18:34:34Z</time>
      </trkpt>
      <trkpt lat="60.0130281949" lon="23.5437215163">
        <ele>61.2</ele>
        <time>2012-02-14T18:34:50Z</time>
      </trkpt>
      <trkpt lat="60.0130299551" lon="23.5436821213">
        <ele>62</ele>
        <time>2012-02-14T18:35:02Z</time>
      </trkpt>
      <trkpt lat="60.0130291169" lon="23.5436900841">
        <ele>63.8</ele>
        <time>2012-02-14T18:35:18Z</time>
      </trkpt>
      <trkpt lat="60.0130343137" lon="23.5436786009">
        <ele>66</ele>
        <time>2012-02-14T18:35:37Z</time>
      </trkpt>
      <trkpt lat="60.0131539234" lon="23.54371699">
        <ele>66.4</ele>
        <time>2012-02-14T18:36:52Z</time>
      </trkpt>
      <trkpt lat="60.0133256686" lon="23.5437266292">
        <ele>66.4</ele>
        <time>2012-02-14T18:36:56Z</time>
      </trkpt>
      <trkpt lat="60.0135469507" lon="23.543762839">
        <ele>66.4</ele>
        <time>2012-02-14T18:37:01Z</time>
      </trkpt>
      <trkpt lat="60.0137254014" lon="23.5437981268">
        <ele>66.4</ele>
        <time>2012-02-14T18:37:05Z</time>
      </trkpt>
      <trkpt lat="60.0137684843" lon="23.5438069278">
        <ele>66.4</ele>
        <time>2012-02-14T18:37:06Z</time>
      </trkpt>
      <trkpt lat="60.0138134113" lon="23.5438122084">
        <ele>66.4</ele>
        <time>2012-02-14T18:37:07Z</time>
      </trkpt>
      <trkpt lat="60.0139951309" lon="23.5438577221">
        <ele>66.4</ele>
        <time>2012-02-14T18:37:11Z</time>
      </trkpt>
      <trkpt lat="60.0140422372" lon="23.5438640086">
        <ele>66.4</ele>
        <time>2012-02-14T18:37:12Z</time>
      </trkpt>
      <trkpt lat="60.0141297442" lon="23.543895273">
        <ele>66.4</ele>
        <time>2012-02-14T18:37:14Z</time>
      </trkpt>
      <trkpt lat="60.0143932712" lon="23.5439631664">
        <ele>66.4</ele>
        <time>2012-02-14T18:37:20Z</time>
      </trkpt>
      <trkpt lat="60.0145992145" lon="23.5439619091">
        <ele>66.4</ele>
        <time>2012-02-14T18:37:25Z</time>
      </trkpt>
      <trkpt lat="60.0146389447" lon="23.5439506774">
        <ele>66.4</ele>
        <time>2012-02-14T18:37:26Z</time>
      </trkpt>
      <trkpt lat="60.0146762441" lon="23.5439312314">
        <ele>66.4</ele>
        <time>2012-02-14T18:37:27Z</time>
      </trkpt>
      <trkpt lat="60.0149070816" lon="23.5437574746">
        <ele>66.4</ele>
        <time>2012-02-14T18:37:33Z</time>
      </trkpt>
      <trkpt lat="60.0150253502" lon="23.5436675368">
        <ele>66.4</ele>
        <time>2012-02-14T18:37:36Z</time>
      </trkpt>
      <trkpt lat="60.0152619713" lon="23.5434872422">
        <ele>66.4</ele>
        <time>2012-02-14T18:37:42Z</time>
      </trkpt>
      <trkpt lat="60.0153440301" lon="23.5434271439">
        <ele>66.4</ele>
        <time>2012-02-14T18:37:44Z</time>
      </trkpt>
      <trkpt lat="60.0155790586" lon="23.543262691">
        <ele>66.4</ele>
        <time>2012-02-14T18:37:50Z</time>
      </trkpt>
      <trkpt lat="60.0157751112" lon="23.5431486972">
        <ele>66.4</ele>
        <time>2012-02-14T18:37:55Z</time>
      </trkpt>
      <trkpt lat="60.0158573376" lon="23.5431060333">
        <ele>66.4</ele>
        <time>2012-02-14T18:37:57Z</time>
      </trkpt>
      <trkpt lat="60.0160148335" lon="23.5430699912">
        <ele>66.2</ele>
        <time>2012-02-14T18:38:01Z</time>
      </trkpt>
      <trkpt lat="60.0162051027" lon="23.5430145868">
        <ele>65.6</ele>
        <time>2012-02-14T18:38:06Z</time>
      </trkpt>
      <trkpt lat="60.0164335933" lon="23.5429287562">
        <ele>65</ele>
        <time>2012-02-14T18:38:12Z</time>
      </trkpt>
      <trkpt lat="60.0166231918" lon="23.5428649699">
        <ele>64.8</ele>
        <time>2012-02-14T18:38:17Z</time>
      </trkpt>
      <trkpt lat="60.0168169814" lon="23.5428066319">
        <ele>64.6</ele>
        <time>2012-02-14T18:38:22Z</time>
      </trkpt>
      <trkpt lat="60.0170142913" lon="23.5427586036">
        <ele>64.6</ele>
        <time>2012-02-14T18:38:27Z</time>
      </trkpt>
      <trkpt lat="60.0172115174" lon="23.542701439">
        <ele>64.4</ele>
        <time>2012-02-14T18:38:32Z</time>
      </trkpt>
      <trkpt lat="60.0174134374" lon="23.5426587752">
        <ele>64</ele>
        <time>2012-02-14T18:38:37Z</time>
      </trkpt>
      <trkpt lat="60.0176213923" lon="23.5426175362">
        <ele>63.4</ele>
        <time>2012-02-14T18:38:42Z</time>
      </trkpt>
      <trkpt lat="60.0178223065" lon="23.5425702623">
        <ele>63</ele>
        <time>2012-02-14T18:38:47Z</time>
      </trkpt>
      <trkpt lat="60.0178565884" lon="23.5425586953">
        <ele>63</ele>
        <time>2012-02-14T18:38:48Z</time>
      </trkpt>
      <trkpt lat="60.0180621126" lon="23.5424760497">
        <ele>62.6</ele>
        <time>2012-02-14T18:38:53Z</time>
      </trkpt>
      <trkpt lat="60.0181808841" lon="23.5424151971">
        <ele>62.6</ele>
        <time>2012-02-14T18:38:56Z</time>
      </trkpt>
      <trkpt lat="60.0182950456" lon="23.5423182186">
        <ele>62.6</ele>
        <time>2012-02-14T18:38:59Z</time>
      </trkpt>
      <trkpt lat="60.0183634419" lon="23.5422409374">
        <ele>62.6</ele>
        <time>2012-02-14T18:39:01Z</time>
      </trkpt>
      <trkpt lat="60.0185572315" lon="23.5419745607">
        <ele>62</ele>
        <time>2012-02-14T18:39:07Z</time>
      </trkpt>
      <trkpt lat="60.018688492" lon="23.5416938508">
        <ele>61.4</ele>
        <time>2012-02-14T18:39:12Z</time>
      </trkpt>
      <trkpt lat="60.0188147234" lon="23.5413722373">
        <ele>61</ele>
        <time>2012-02-14T18:39:17Z</time>
      </trkpt>
      <trkpt lat="60.0189082654" lon="23.541113991">
        <ele>60.8</ele>
        <time>2012-02-14T18:39:21Z</time>
      </trkpt>
      <trkpt lat="60.0189712135" lon="23.5409223808">
        <ele>60.6</ele>
        <time>2012-02-14T18:39:24Z</time>
      </trkpt>
      <trkpt lat="60.0191349958" lon="23.5405455305">
        <ele>60.6</ele>
        <time>2012-02-14T18:39:30Z</time>
      </trkpt>
      <trkpt lat="60.0194640692" lon="23.5400022996">
        <ele>61.6</ele>
        <time>2012-02-14T18:39:41Z</time>
      </trkpt>
      <trkpt lat="60.0196144405" lon="23.5397897346">
        <ele>62</ele>
        <time>2012-02-14T18:39:46Z</time>
      </trkpt>
      <trkpt lat="60.0197807374" lon="23.5396049975">
        <ele>62.2</ele>
        <time>2012-02-14T18:39:51Z</time>
      </trkpt>
      <trkpt lat="60.0199304381" lon="23.5393782671">
        <ele>62.2</ele>
        <time>2012-02-14T18:39:56Z</time>
      </trkpt>
      <trkpt lat="60.0200922926" lon="23.539166708">
        <ele>62.4</ele>
        <time>2012-02-14T18:40:01Z</time>
      </trkpt>
      <trkpt lat="60.0202698213" lon="23.5390179293">
        <ele>62.4</ele>
        <time>2012-02-14T18:40:06Z</time>
      </trkpt>
      <trkpt lat="60.020448691" lon="23.5388451783">
        <ele>62.4</ele>
        <time>2012-02-14T18:40:11Z</time>
      </trkpt>
      <trkpt lat="60.0206169157" lon="23.538686928">
        <ele>62.4</ele>
        <time>2012-02-14T18:40:16Z</time>
      </trkpt>
      <trkpt lat="60.0207963722" lon="23.5385187033">
        <ele>62.4</ele>
        <time>2012-02-14T18:40:21Z</time>
      </trkpt>
      <trkpt lat="60.0209850488" lon="23.5383192979">
        <ele>62.4</ele>
        <time>2012-02-14T18:40:26Z</time>
      </trkpt>
      <trkpt lat="60.0210531098" lon="23.5382174578">
        <ele>62.4</ele>
        <time>2012-02-14T18:40:29Z</time>
      </trkpt>
      <trkpt lat="60.0210514334" lon="23.5382059746">
        <ele>64.4</ele>
        <time>2012-02-14T18:40:57Z</time>
      </trkpt>
      <trkpt lat="60.0210295567" lon="23.5382424359">
        <ele>64.4</ele>
        <time>2012-02-14T18:41:19Z</time>
      </trkpt>
      <trkpt lat="60.0210235217" lon="23.5382681683">
        <ele>64.4</ele>
        <time>2012-02-14T18:41:26Z</time>
      </trkpt>
      <trkpt lat="60.0209733141" lon="23.5383281827">
        <ele>59.8</ele>
        <time>2012-02-14T18:42:18Z</time>
      </trkpt>
      <trkpt lat="60.0208748268" lon="23.5384206351">
        <ele>59</ele>
        <time>2012-02-14T18:42:24Z</time>
      </trkpt>
      <trkpt lat="60.0207466675" lon="23.5385635465">
        <ele>58.8</ele>
        <time>2012-02-14T18:42:29Z</time>
      </trkpt>
      <trkpt lat="60.0206221963" lon="23.5386925439">
        <ele>58</ele>
        <time>2012-02-14T18:42:34Z</time>
      </trkpt>
      <trkpt lat="60.0204570729" lon="23.5388690667">
        <ele>57.2</ele>
        <time>2012-02-14T18:42:40Z</time>
      </trkpt>
      <trkpt lat="60.0204007465" lon="23.5389343617">
        <ele>57</ele>
        <time>2012-02-14T18:42:42Z</time>
      </trkpt>
      <trkpt lat="60.0202933744" lon="23.5390421529">
        <ele>56.6</ele>
        <time>2012-02-14T18:42:46Z</time>
      </trkpt>
      <trkpt lat="60.0201544025" lon="23.5392043427">
        <ele>56.4</ele>
        <time>2012-02-14T18:42:51Z</time>
      </trkpt>
      <trkpt lat="60.0200538197" lon="23.5393235333">
        <ele>56.4</ele>
        <time>2012-02-14T18:42:55Z</time>
      </trkpt>
      <trkpt lat="60.0199142611" lon="23.539493183">
        <ele>56.2</ele>
        <time>2012-02-14T18:43:00Z</time>
      </trkpt>
      <trkpt lat="60.0198013569" lon="23.5396405368">
        <ele>56.2</ele>
        <time>2012-02-14T18:43:04Z</time>
      </trkpt>
      <trkpt lat="60.0196472975" lon="23.5398696979">
        <ele>56.2</ele>
        <time>2012-02-14T18:43:10Z</time>
      </trkpt>
      <trkpt lat="60.0195214852" lon="23.5400613082">
        <ele>56.2</ele>
        <time>2012-02-14T18:43:15Z</time>
      </trkpt>
      <trkpt lat="60.0194212377" lon="23.5401957538">
        <ele>56.2</ele>
        <time>2012-02-14T18:43:19Z</time>
      </trkpt>
      <trkpt lat="60.0192986105" lon="23.5403979253">
        <ele>56.2</ele>
        <time>2012-02-14T18:43:24Z</time>
      </trkpt>
      <trkpt lat="60.019179839" lon="23.540583752">
        <ele>56.2</ele>
        <time>2012-02-14T18:43:30Z</time>
      </trkpt>
      <trkpt lat="60.0190715448" lon="23.5407885218">
        <ele>56.2</ele>
        <time>2012-02-14T18:43:34Z</time>
      </trkpt>
      <trkpt lat="60.0189970297" lon="23.5409744323">
        <ele>56.2</ele>
        <time>2012-02-14T18:43:38Z</time>
      </trkpt>
      <trkpt lat="60.0189189943" lon="23.5411786154">
        <ele>56.2</ele>
        <time>2012-02-14T18:43:43Z</time>
      </trkpt>
      <trkpt lat="60.0188098619" lon="23.5415178309">
        <ele>56.2</ele>
        <time>2012-02-14T18:43:49Z</time>
      </trkpt>
      <trkpt lat="60.0186979636" lon="23.5418453118">
        <ele>56.2</ele>
        <time>2012-02-14T18:43:55Z</time>
      </trkpt>
      <trkpt lat="60.0185893341" lon="23.5420919073">
        <ele>56.2</ele>
        <time>2012-02-14T18:44:00Z</time>
      </trkpt>
      <trkpt lat="60.018465282" lon="23.5423108425">
        <ele>56.2</ele>
        <time>2012-02-14T18:44:05Z</time>
      </trkpt>
      <trkpt lat="60.0183048524" lon="23.5425077333">
        <ele>56.2</ele>
        <time>2012-02-14T18:44:11Z</time>
      </trkpt>
      <trkpt lat="60.0181835663" lon="23.5425997666">
        <ele>56.2</ele>
        <time>2012-02-14T18:44:15Z</time>
      </trkpt>
      <trkpt lat="60.0180356258" lon="23.5426747008">
        <ele>56.2</ele>
        <time>2012-02-14T18:44:20Z</time>
      </trkpt>
      <trkpt lat="60.0178292634" lon="23.5427182028">
        <ele>56.2</ele>
        <time>2012-02-14T18:44:27Z</time>
      </trkpt>
      <trkpt lat="60.0175152775" lon="23.542788527">
        <ele>56.2</ele>
        <time>2012-02-14T18:44:38Z</time>
      </trkpt>
      <trkpt lat="60.0173606314" lon="23.5428460268">
        <ele>56.2</ele>
        <time>2012-02-14T18:44:43Z</time>
      </trkpt>
      <trkpt lat="60.0172210728" lon="23.542877878">
        <ele>56.2</ele>
        <time>2012-02-14T18:44:48Z</time>
      </trkpt>
      <trkpt lat="60.0171333143" lon="23.5428898641">
        <ele>56.2</ele>
        <time>2012-02-14T18:44:55Z</time>
      </trkpt>
      <trkpt lat="60.0170466454" lon="23.5429124953">
        <ele>56.2</ele>
        <time>2012-02-14T18:45:03Z</time>
      </trkpt>
      <trkpt lat="60.0169696996" lon="23.5429311031">
        <ele>56.2</ele>
        <time>2012-02-14T18:45:09Z</time>
      </trkpt>
      <trkpt lat="60.0168992078" lon="23.5429487051">
        <ele>56.2</ele>
        <time>2012-02-14T18:45:15Z</time>
      </trkpt>
      <trkpt lat="60.0168886466" lon="23.5429551591">
        <ele>56.2</ele>
        <time>2012-02-14T18:45:16Z</time>
      </trkpt>
      <trkpt lat="60.0168456475" lon="23.5429690731">
        <ele>56.2</ele>
        <time>2012-02-14T18:45:19Z</time>
      </trkpt>
      <trkpt lat="60.0166849664" lon="23.5429901955">
        <ele>56.2</ele>
        <time>2012-02-14T18:45:30Z</time>
      </trkpt>
      <trkpt lat="60.0165546279" lon="23.5430225496">
        <ele>56.2</ele>
        <time>2012-02-14T18:45:40Z</time>
      </trkpt>
      <trkpt lat="60.0164715633" lon="23.543038559">
        <ele>56.2</ele>
        <time>2012-02-14T18:45:46Z</time>
      </trkpt>
      <trkpt lat="60.0163629338" lon="23.5430683148">
        <ele>56.2</ele>
        <time>2012-02-14T18:45:54Z</time>
      </trkpt>
      <trkpt lat="60.016250784" lon="23.5431003336">
        <ele>55</ele>
        <time>2012-02-14T18:46:02Z</time>
      </trkpt>
      <trkpt lat="60.0161672165" lon="23.5431170974">
        <ele>54.6</ele>
        <time>2012-02-14T18:46:08Z</time>
      </trkpt>
      <trkpt lat="60.0160565754" lon="23.5431462665">
        <ele>54.4</ele>
        <time>2012-02-14T18:46:15Z</time>
      </trkpt>
      <trkpt lat="60.0159414081" lon="23.5431911096">
        <ele>54.2</ele>
        <time>2012-02-14T18:46:23Z</time>
      </trkpt>
      <trkpt lat="60.015815512" lon="23.5432505373">
        <ele>54.2</ele>
        <time>2012-02-14T18:46:32Z</time>
      </trkpt>
      <trkpt lat="60.0157419189" lon="23.5432994876">
        <ele>54.2</ele>
        <time>2012-02-14T18:46:38Z</time>
      </trkpt>
      <trkpt lat="60.0157192877" lon="23.5433144912">
        <ele>54.2</ele>
        <time>2012-02-14T18:46:40Z</time>
      </trkpt>
      <trkpt lat="60.0156482092" lon="23.5433357812">
        <ele>54.2</ele>
        <time>2012-02-14T18:46:45Z</time>
      </trkpt>
      <trkpt lat="60.0155588582" lon="23.5433863241">
        <ele>54.2</ele>
        <time>2012-02-14T18:46:51Z</time>
      </trkpt>
      <trkpt lat="60.0154745363" lon="23.5434525411">
        <ele>54.2</ele>
        <time>2012-02-14T18:46:57Z</time>
      </trkpt>
      <trkpt lat="60.0153665774" lon="23.5435324206">
        <ele>54.2</ele>
        <time>2012-02-14T18:47:04Z</time>
      </trkpt>
      <trkpt lat="60.015232467" lon="23.5436144794">
        <ele>54.2</ele>
        <time>2012-02-14T18:47:13Z</time>
      </trkpt>
      <trkpt lat="60.0151357399" lon="23.5436863961">
        <ele>54.2</ele>
        <time>2012-02-14T18:47:20Z</time>
      </trkpt>
      <trkpt lat="60.0150737138" lon="23.5437358493">
        <ele>54.2</ele>
        <time>2012-02-14T18:47:24Z</time>
      </trkpt>
      <trkpt lat="60.0148032299" lon="23.5439186585">
        <ele>54.2</ele>
        <time>2012-02-14T18:47:44Z</time>
      </trkpt>
      <trkpt lat="60.014723518" lon="23.5439543654">
        <ele>54.2</ele>
        <time>2012-02-14T18:47:52Z</time>
      </trkpt>
      <trkpt lat="60.0146353404" lon="23.5439904914">
        <ele>54.2</ele>
        <time>2012-02-14T18:47:59Z</time>
      </trkpt>
      <trkpt lat="60.0145226877" lon="23.5440198281">
        <ele>54.2</ele>
        <time>2012-02-14T18:48:07Z</time>
      </trkpt>
      <trkpt lat="60.0144065146" lon="23.544034664">
        <ele>54.2</ele>
        <time>2012-02-14T18:48:15Z</time>
      </trkpt>
      <trkpt lat="60.0143248749" lon="23.5440186546">
        <ele>54.2</ele>
        <time>2012-02-14T18:48:21Z</time>
      </trkpt>
      <trkpt lat="60.0141754256" lon="23.5440105242">
        <ele>54.2</ele>
        <time>2012-02-14T18:48:30Z</time>
      </trkpt>
      <trkpt lat="60.0139968911" lon="23.543991162">
        <ele>54.2</ele>
        <time>2012-02-14T18:48:36Z</time>
      </trkpt>
      <trkpt lat="60.0138808018" lon="23.5439595622">
        <ele>54.2</ele>
        <time>2012-02-14T18:48:40Z</time>
      </trkpt>
      <trkpt lat="60.0137593481" lon="23.5439381884">
        <ele>54.2</ele>
        <time>2012-02-14T18:48:44Z</time>
      </trkpt>
      <trkpt lat="60.0136379782" lon="23.5439151381">
        <ele>54.2</ele>
        <time>2012-02-14T18:48:48Z</time>
      </trkpt>
      <trkpt lat="60.0135228109" lon="23.5438941834">
        <ele>54.2</ele>
        <time>2012-02-14T18:48:52Z</time>
      </trkpt>
      <trkpt lat="60.0134136785" lon="23.5438459037">
        <ele>54.2</ele>
        <time>2012-02-14T18:48:56Z</time>
      </trkpt>
      <trkpt lat="60.0132882015" lon="23.5438096938">
        <ele>54.2</ele>
        <time>2012-02-14T18:49:01Z</time>
      </trkpt>
      <trkpt lat="60.0132544224" lon="23.5438020663">
        <ele>54.2</ele>
        <time>2012-02-14T18:49:04Z</time>
      </trkpt>
      <trkpt lat="60.0132255049" lon="23.543807766">
        <ele>54.2</ele>
        <time>2012-02-14T18:49:07Z</time>
      </trkpt>
      <trkpt lat="60.01317404" lon="23.5437790161">
        <ele>54.2</ele>
        <time>2012-02-14T18:49:14Z</time>
      </trkpt>
      <trkpt lat="60.0131623892" lon="23.5437305687">
        <ele>57</ele>
        <time>2012-02-14T18:50:01Z</time>
      </trkpt>
      <trkpt lat="60.0133013611" lon="23.5437302334">
        <ele>74.6</ele>
        <time>2012-02-14T18:51:26Z</time>
      </trkpt>
      <trkpt lat="60.0133866888" lon="23.5437500147">
        <ele>75.6</ele>
        <time>2012-02-14T18:51:30Z</time>
      </trkpt>
      <trkpt lat="60.0135698333" lon="23.5437653536">
        <ele>76.4</ele>
        <time>2012-02-14T18:51:35Z</time>
      </trkpt>
      <trkpt lat="60.0137794646" lon="23.5438029883">
        <ele>77</ele>
        <time>2012-02-14T18:51:40Z</time>
      </trkpt>
      <trkpt lat="60.0138647086" lon="23.5438204227">
        <ele>77.2</ele>
        <time>2012-02-14T18:51:42Z</time>
      </trkpt>
      <trkpt lat="60.0141077837" lon="23.5438992964">
        <ele>77.4</ele>
        <time>2012-02-14T18:51:48Z</time>
      </trkpt>
      <trkpt lat="60.0141504475" lon="23.5439126236">
        <ele>77.4</ele>
        <time>2012-02-14T18:51:49Z</time>
      </trkpt>
      <trkpt lat="60.014236362" lon="23.5439414573">
        <ele>77.4</ele>
        <time>2012-02-14T18:51:51Z</time>
      </trkpt>
      <trkpt lat="60.014316493" lon="23.5439504259">
        <ele>77.4</ele>
        <time>2012-02-14T18:51:53Z</time>
      </trkpt>
      <trkpt lat="60.0145779244" lon="23.5439416249">
        <ele>76.6</ele>
        <time>2012-02-14T18:51:59Z</time>
      </trkpt>
      <trkpt lat="60.0146604861" lon="23.5439257832">
        <ele>76.4</ele>
        <time>2012-02-14T18:52:01Z</time>
      </trkpt>
      <trkpt lat="60.0148279565" lon="23.5438375218">
        <ele>75.6</ele>
        <time>2012-02-14T18:52:05Z</time>
      </trkpt>
      <trkpt lat="60.0150623144" lon="23.5436653575">
        <ele>74.6</ele>
        <time>2012-02-14T18:52:11Z</time>
      </trkpt>
      <trkpt lat="60.015261636" lon="23.5435119688">
        <ele>74.2</ele>
        <time>2012-02-14T18:52:16Z</time>
      </trkpt>
      <trkpt lat="60.0154383265" lon="23.5433828875">
        <ele>73.6</ele>
        <time>2012-02-14T18:52:20Z</time>
      </trkpt>
      <trkpt lat="60.0156410846" lon="23.5432428259">
        <ele>72.8</ele>
        <time>2012-02-14T18:52:25Z</time>
      </trkpt>
      <trkpt lat="60.0158883507" lon="23.543117768">
        <ele>72.4</ele>
        <time>2012-02-14T18:52:31Z</time>
      </trkpt>
      <trkpt lat="60.0160841519" lon="23.5430501261">
        <ele>72</ele>
        <time>2012-02-14T18:52:36Z</time>
      </trkpt>
      <trkpt lat="60.0161331022" lon="23.5430331108">
        <ele>72</ele>
        <time>2012-02-14T18:52:37Z</time>
      </trkpt>
      <trkpt lat="60.0162830543" lon="23.542981143">
        <ele>71.8</ele>
        <time>2012-02-14T18:52:41Z</time>
      </trkpt>
      <trkpt lat="60.0165111258" lon="23.5429072985">
        <ele>71.8</ele>
        <time>2012-02-14T18:52:47Z</time>
      </trkpt>
      <trkpt lat="60.0167235232" lon="23.5428566718">
        <ele>71.6</ele>
        <time>2012-02-14T18:52:52Z</time>
      </trkpt>
      <trkpt lat="60.0169308076" lon="23.5428052069">
        <ele>71.6</ele>
        <time>2012-02-14T18:52:57Z</time>
      </trkpt>
      <trkpt lat="60.0171380081" lon="23.5427537421">
        <ele>71.6</ele>
        <time>2012-02-14T18:53:02Z</time>
      </trkpt>
      <trkpt lat="60.0171757267" lon="23.5427370621">
        <ele>71.6</ele>
        <time>2012-02-14T18:53:03Z</time>
      </trkpt>
      <trkpt lat="60.0173857771" lon="23.5426850943">
        <ele>71.2</ele>
        <time>2012-02-14T18:53:08Z</time>
      </trkpt>
      <trkpt lat="60.0175734478" lon="23.542645867">
        <ele>70.6</ele>
        <time>2012-02-14T18:53:12Z</time>
      </trkpt>
      <trkpt lat="60.0177850908" lon="23.5425882834">
        <ele>70.2</ele>
        <time>2012-02-14T18:53:17Z</time>
      </trkpt>
      <trkpt lat="60.0179900283" lon="23.5425410095">
        <ele>70</ele>
        <time>2012-02-14T18:53:22Z</time>
      </trkpt>
      <trkpt lat="60.0180740987" lon="23.5425095773">
        <ele>69.8</ele>
        <time>2012-02-14T18:53:24Z</time>
      </trkpt>
      <trkpt lat="60.0182683912" lon="23.542383765">
        <ele>69.2</ele>
        <time>2012-02-14T18:53:29Z</time>
      </trkpt>
      <trkpt lat="60.0184715684" lon="23.5421468925">
        <ele>68.4</ele>
        <time>2012-02-14T18:53:35Z</time>
      </trkpt>
      <trkpt lat="60.0186876538" lon="23.5417309826">
        <ele>67.6</ele>
        <time>2012-02-14T18:53:42Z</time>
      </trkpt>
      <trkpt lat="60.0187148112" lon="23.5416681184">
        <ele>67.4</ele>
        <time>2012-02-14T18:53:43Z</time>
      </trkpt>
      <trkpt lat="60.0188635061" lon="23.541229745">
        <ele>66.4</ele>
        <time>2012-02-14T18:53:49Z</time>
      </trkpt>
      <trkpt lat="60.0188868078" lon="23.5411484406">
        <ele>66.4</ele>
        <time>2012-02-14T18:53:50Z</time>
      </trkpt>
      <trkpt lat="60.0189634183" lon="23.5409401504">
        <ele>66.2</ele>
        <time>2012-02-14T18:53:53Z</time>
      </trkpt>
      <trkpt lat="60.0191368398" lon="23.5405767112">
        <ele>65.8</ele>
        <time>2012-02-14T18:53:59Z</time>
      </trkpt>
      <trkpt lat="60.0192561143" lon="23.540328104">
        <ele>65.6</ele>
        <time>2012-02-14T18:54:03Z</time>
      </trkpt>
      <trkpt lat="60.0193623129" lon="23.540165579">
        <ele>65.6</ele>
        <time>2012-02-14T18:54:06Z</time>
      </trkpt>
      <trkpt lat="60.0195291128" lon="23.5399068297">
        <ele>65.6</ele>
        <time>2012-02-14T18:54:11Z</time>
      </trkpt>
      <trkpt lat="60.0195675857" lon="23.5398605617">
        <ele>65.4</ele>
        <time>2012-02-14T18:54:12Z</time>
      </trkpt>
      <trkpt lat="60.0197421807" lon="23.5396358429">
        <ele>65.4</ele>
        <time>2012-02-14T18:54:17Z</time>
      </trkpt>
      <trkpt lat="60.0197804859" lon="23.5395956936">
        <ele>65.4</ele>
        <time>2012-02-14T18:54:18Z</time>
      </trkpt>
      <trkpt lat="60.0199565058" lon="23.5393730704">
        <ele>65.4</ele>
        <time>2012-02-14T18:54:23Z</time>
      </trkpt>
      <trkpt lat="60.0199955655" lon="23.5393288139">
        <ele>65.4</ele>
        <time>2012-02-14T18:54:24Z</time>
      </trkpt>
      <trkpt lat="60.0200738524" lon="23.5392491859">
        <ele>65.4</ele>
        <time>2012-02-14T18:54:26Z</time>
      </trkpt>
      <trkpt lat="60.0203373794" lon="23.5389530533">
        <ele>65.4</ele>
        <time>2012-02-14T18:54:33Z</time>
      </trkpt>
      <trkpt lat="60.0204649519" lon="23.5388280792">
        <ele>65.4</ele>
        <time>2012-02-14T18:54:37Z</time>
      </trkpt>
      <trkpt lat="60.0207200969" lon="23.5386186155">
        <ele>65.4</ele>
        <time>2012-02-14T18:54:43Z</time>
      </trkpt>
      <trkpt lat="60.0207607491" lon="23.5385785501">
        <ele>65.4</ele>
        <time>2012-02-14T18:54:44Z</time>
      </trkpt>
      <trkpt lat="60.0208362701" lon="23.5384825773">
        <ele>65.4</ele>
        <time>2012-02-14T18:54:46Z</time>
      </trkpt>
      <trkpt lat="60.0210469072" lon="23.5382744547">
        <ele>65.4</ele>
        <time>2012-02-14T18:54:51Z</time>
      </trkpt>
      <trkpt lat="60.0210819435" lon="23.538227097">
        <ele>65.4</ele>
        <time>2012-02-14T18:54:54Z</time>
      </trkpt>
      <trkpt lat="60.0210878109" lon="23.5381920606">
        <ele>65.4</ele>
        <time>2012-02-14T18:55:03Z</time>
      </trkpt>
      <trkpt lat="60.0210935944" lon="23.5381882888">
        <ele>65.4</ele>
        <time>2012-02-14T18:55:14Z</time>
      </trkpt>
      <trkpt lat="60.0210588095" lon="23.5382048011">
        <ele>65.4</ele>
        <time>2012-02-14T18:56:10Z</time>
      </trkpt>
      <trkpt lat="60.0209601545" lon="23.5383063059">
        <ele>65.4</ele>
        <time>2012-02-14T18:56:15Z</time>
      </trkpt>
      <trkpt lat="60.0208406286" lon="23.5384355548">
        <ele>65.4</ele>
        <time>2012-02-14T18:56:20Z</time>
      </trkpt>
      <trkpt lat="60.0207389562" lon="23.5385446034">
        <ele>65.2</ele>
        <time>2012-02-14T18:56:24Z</time>
      </trkpt>
      <trkpt lat="60.0205845616" lon="23.5387218805">
        <ele>64.4</ele>
        <time>2012-02-14T18:56:30Z</time>
      </trkpt>
      <trkpt lat="60.020434358" lon="23.5388808852">
        <ele>63.6</ele>
        <time>2012-02-14T18:56:35Z</time>
      </trkpt>
      <trkpt lat="60.0202859983" lon="23.5390330167">
        <ele>62.6</ele>
        <time>2012-02-14T18:56:41Z</time>
      </trkpt>
      <trkpt lat="60.020151385" lon="23.5391902611">
        <ele>62</ele>
        <time>2012-02-14T18:56:46Z</time>
      </trkpt>
      <trkpt lat="60.020042085" lon="23.539311631">
        <ele>61</ele>
        <time>2012-02-14T18:56:50Z</time>
      </trkpt>
      <trkpt lat="60.0199253252" lon="23.5394725635">
        <ele>60.4</ele>
        <time>2012-02-14T18:56:54Z</time>
      </trkpt>
      <trkpt lat="60.0197688351" lon="23.5396915826">
        <ele>59.6</ele>
        <time>2012-02-14T18:57:00Z</time>
      </trkpt>
      <trkpt lat="60.0196351438" lon="23.5398938378">
        <ele>59.4</ele>
        <time>2012-02-14T18:57:05Z</time>
      </trkpt>
      <trkpt lat="60.0195361536" lon="23.5400230867">
        <ele>59.2</ele>
        <time>2012-02-14T18:57:09Z</time>
      </trkpt>
      <trkpt lat="60.0194517478" lon="23.5401473065">
        <ele>59.2</ele>
        <time>2012-02-14T18:57:13Z</time>
      </trkpt>
      <trkpt lat="60.0193587087" lon="23.5402897988">
        <ele>59</ele>
        <time>2012-02-14T18:57:17Z</time>
      </trkpt>
      <trkpt lat="60.0192496602" lon="23.5404581911">
        <ele>58.8</ele>
        <time>2012-02-14T18:57:22Z</time>
      </trkpt>
      <trkpt lat="60.0191819345" lon="23.5405726041">
        <ele>58.2</ele>
        <time>2012-02-14T18:57:25Z</time>
      </trkpt>
      <trkpt lat="60.0190425435" lon="23.5408567505">
        <ele>57.6</ele>
        <time>2012-02-14T18:57:32Z</time>
      </trkpt>
      <trkpt lat="60.0189263703" lon="23.541141316">
        <ele>57.2</ele>
        <time>2012-02-14T18:57:38Z</time>
      </trkpt>
      <trkpt lat="60.0188220157" lon="23.5414576489">
        <ele>57.2</ele>
        <time>2012-02-14T18:57:44Z</time>
      </trkpt>
      <trkpt lat="60.0187633424" lon="23.5416536177">
        <ele>57</ele>
        <time>2012-02-14T18:57:48Z</time>
      </trkpt>
      <trkpt lat="60.0186496838" lon="23.541948912">
        <ele>57</ele>
        <time>2012-02-14T18:57:54Z</time>
      </trkpt>
      <trkpt lat="60.0185169145" lon="23.5422154565">
        <ele>57</ele>
        <time>2012-02-14T18:58:00Z</time>
      </trkpt>
      <trkpt lat="60.0183802057" lon="23.5423909734">
        <ele>57</ele>
        <time>2012-02-14T18:58:05Z</time>
      </trkpt>
      <trkpt lat="60.0182466821" lon="23.5425286881">
        <ele>57</ele>
        <time>2012-02-14T18:58:10Z</time>
      </trkpt>
      <trkpt lat="60.0180961431" lon="23.5426223139">
        <ele>57</ele>
        <time>2012-02-14T18:58:15Z</time>
      </trkpt>
      <trkpt lat="60.0179513039" lon="23.5426783888">
        <ele>57</ele>
        <time>2012-02-14T18:58:20Z</time>
      </trkpt>
      <trkpt lat="60.0177983342" lon="23.5427381517">
        <ele>57</ele>
        <time>2012-02-14T18:58:25Z</time>
      </trkpt>
      <trkpt lat="60.0176115017" lon="23.5427851742">
        <ele>57</ele>
        <time>2012-02-14T18:58:31Z</time>
      </trkpt>
      <trkpt lat="60.0174828395" lon="23.5428156843">
        <ele>57</ele>
        <time>2012-02-14T18:58:35Z</time>
      </trkpt>
      <trkpt lat="60.0172832665" lon="23.5428271675">
        <ele>57</ele>
        <time>2012-02-14T18:58:42Z</time>
      </trkpt>
      <trkpt lat="60.0171173887" lon="23.5428415006">
        <ele>57</ele>
        <time>2012-02-14T18:58:48Z</time>
      </trkpt>
      <trkpt lat="60.0169749802" lon="23.542898749">
        <ele>57</ele>
        <time>2012-02-14T18:58:53Z</time>
      </trkpt>
      <trkpt lat="60.0168324879" lon="23.542948286">
        <ele>57</ele>
        <time>2012-02-14T18:58:58Z</time>
      </trkpt>
      <trkpt lat="60.0166940189" lon="23.542969576">
        <ele>56.2</ele>
        <time>2012-02-14T18:59:03Z</time>
      </trkpt>
      <trkpt lat="60.0165147301" lon="23.5430276626">
        <ele>55.6</ele>
        <time>2012-02-14T18:59:09Z</time>
      </trkpt>
      <trkpt lat="60.0163426497" lon="23.543084408">
        <ele>55.2</ele>
        <time>2012-02-14T18:59:15Z</time>
      </trkpt>
      <trkpt lat="60.0162261412" lon="23.5431282454">
        <ele>55.2</ele>
        <time>2012-02-14T18:59:19Z</time>
      </trkpt>
      <trkpt lat="60.0159046116" lon="23.5432273194">
        <ele>55</ele>
        <time>2012-02-14T18:59:30Z</time>
      </trkpt>
      <trkpt lat="60.015730268" lon="23.5433218673">
        <ele>55</ele>
        <time>2012-02-14T18:59:36Z</time>
      </trkpt>
      <trkpt lat="60.0156081438" lon="23.5433917723">
        <ele>55</ele>
        <time>2012-02-14T18:59:40Z</time>
      </trkpt>
      <trkpt lat="60.0154285196" lon="23.5435240387">
        <ele>55</ele>
        <time>2012-02-14T18:59:46Z</time>
      </trkpt>
      <trkpt lat="60.0152856082" lon="23.5436226098">
        <ele>55</ele>
        <time>2012-02-14T18:59:51Z</time>
      </trkpt>
      <trkpt lat="60.0151258492" lon="23.5437407946">
        <ele>55</ele>
        <time>2012-02-14T18:59:57Z</time>
      </trkpt>
      <trkpt lat="60.0150154596" lon="23.5438246974">
        <ele>55</ele>
        <time>2012-02-14T19:00:01Z</time>
      </trkpt>
      <trkpt lat="60.0149028069" lon="23.5439363444">
        <ele>55</ele>
        <time>2012-02-14T19:00:05Z</time>
      </trkpt>
      <trkpt lat="60.0147633321" lon="23.5440530204">
        <ele>55</ele>
        <time>2012-02-14T19:00:10Z</time>
      </trkpt>
      <trkpt lat="60.0147055808" lon="23.5441006296">
        <ele>55</ele>
        <time>2012-02-14T19:00:14Z</time>
      </trkpt>
      <trkpt lat="60.0146540321" lon="23.5440968577">
        <ele>55</ele>
        <time>2012-02-14T19:00:18Z</time>
      </trkpt>
      <trkpt lat="60.0146534453" lon="23.5440965225">
        <ele>55</ele>
        <time>2012-02-14T19:00:19Z</time>
      </trkpt>
    </trkseg>
  </trk>
</gpx>